Time;durP1;ratioP1;P1;durP2;ratioP2;P2;SDS_P1;SDS_P2;PMS_P1;PMS_P2;Temp;Humidity;BMP_temperature;BMP_pressure;BME280_temperature;BME280_humidity;BME280_pressure;Samples;Min_cycle;Max_cycle;Signal;HPM_P1;HPM_P2
2021/11/28 00:00:42;;;;;;;8.30;6.20;;;4.90;99.90;;;;;;4895806;29;20459;-56
2021/11/28 00:03:11;;;;;;;20.50;12.00;;;4.90;99.90;;;;;;4902763;23;20486;-56
2021/11/28 00:05:38;;;;;;;11.80;6.43;;;5.00;99.90;;;;;;4912444;29;20470;-53
2021/11/28 00:08:22;;;;;;;10.87;7.83;;;5.10;99.90;;;;;;4908911;23;20483;-50
2021/11/28 00:10:59;;;;;;;13.80;8.70;;;5.10;99.90;;;;;;4903772;29;20439;-56
2021/11/28 00:16:10;;;;;;;9.93;6.80;;;4.90;99.90;;;;;;4888471;29;20442;-47
2021/11/28 00:18:39;;;;;;;11.40;6.33;;;4.80;99.90;;;;;;4936116;23;20497;-46
2021/11/28 00:21:07;;;;;;;21.80;7.83;;;4.80;99.90;;;;;;4916010;29;20498;-48
2021/11/28 00:23:36;;;;;;;12.13;7.00;;;4.70;99.90;;;;;;4914172;23;20467;-57
2021/11/28 00:26:05;;;;;;;12.47;6.90;;;4.70;99.90;;;;;;4902161;29;20475;-51
2021/11/28 00:28:34;;;;;;;10.70;7.30;;;4.60;99.90;;;;;;4924774;23;20535;-51
2021/11/28 00:31:06;;;;;;;13.73;6.00;;;4.60;99.90;;;;;;4904108;29;20488;-48
2021/11/28 00:33:33;;;;;;;14.77;5.80;;;4.50;99.90;;;;;;4911255;23;20475;-57
2021/11/28 00:36:02;;;;;;;13.83;7.03;;;4.40;99.90;;;;;;4911620;23;20486;-54
2021/11/28 00:38:29;;;;;;;23.33;6.00;;;4.40;99.90;;;;;;4904111;29;20464;-49
2021/11/28 00:40:57;;;;;;;9.10;5.10;;;4.40;99.90;;;;;;4910941;23;20479;-47
2021/11/28 00:43:24;;;;;;;8.20;5.60;;;4.30;99.90;;;;;;4903783;29;20454;-51
2021/11/28 00:45:52;;;;;;;9.00;6.10;;;4.40;99.90;;;;;;4926384;23;20479;-51
2021/11/28 00:48:19;;;;;;;12.00;6.93;;;4.30;99.90;;;;;;4903221;29;20524;-52
2021/11/28 00:50:48;;;;;;;15.10;6.90;;;4.40;99.90;;;;;;4924820;23;20506;-47
2021/11/28 00:53:19;;;;;;;9.80;6.03;;;4.40;99.90;;;;;;4903589;29;20451;-48
2021/11/28 00:55:47;;;;;;;7.80;5.47;;;4.40;99.90;;;;;;4910534;23;20503;-51
2021/11/28 00:58:15;;;;;;;20.40;6.13;;;4.40;99.90;;;;;;4903520;29;20435;-55
2021/11/28 01:00:43;;;;;;;7.20;5.77;;;4.40;99.90;;;;;;4910085;23;20479;-54
2021/11/28 01:03:10;;;;;;;12.17;6.77;;;4.40;99.90;;;;;;4903590;29;20479;-47
2021/11/28 01:05:37;;;;;;;10.57;6.80;;;4.40;99.90;;;;;;4910735;23;20455;-47
2021/11/28 01:08:04;;;;;;;13.23;7.10;;;4.40;99.90;;;;;;4903191;29;20491;-53
2021/11/28 01:10:33;;;;;;;11.43;5.47;;;4.40;99.90;;;;;;4912322;23;20432;-46
2021/11/28 01:13:03;;;;;;;10.30;5.57;;;4.40;99.90;;;;;;4901973;29;20460;-52
2021/11/28 01:15:30;;;;;;;14.57;7.57;;;4.40;99.90;;;;;;4903741;29;20451;-50
2021/11/28 01:17:57;;;;;;;10.60;5.87;;;4.40;99.90;;;;;;4910209;23;20495;-48
2021/11/28 01:20:23;;;;;;;10.80;6.27;;;4.40;99.90;;;;;;4903090;29;20471;-50
2021/11/28 01:22:51;;;;;;;9.40;5.27;;;4.40;99.90;;;;;;4924935;23;20483;-51
2021/11/28 01:25:19;;;;;;;10.30;6.40;;;4.40;99.90;;;;;;4903136;29;20447;-53
2021/11/28 01:27:48;;;;;;;10.47;5.90;;;4.50;99.90;;;;;;4910742;23;20511;-56
2021/11/28 01:30:15;;;;;;;7.73;5.23;;;4.50;99.90;;;;;;4902863;29;20459;-53
2021/11/28 01:32:49;;;;;;;6.87;4.30;;;4.50;99.90;;;;;;4909232;23;20499;-47
2021/11/28 01:35:18;;;;;;;8.40;5.90;;;4.50;99.90;;;;;;4902802;29;20428;-52
2021/11/28 01:37:45;;;;;;;10.73;6.07;;;4.60;99.90;;;;;;4909782;23;20487;-47
2021/11/28 01:40:15;;;;;;;10.33;6.33;;;4.60;99.90;;;;;;4902588;29;20466;-50
2021/11/28 01:42:45;;;;;;;9.97;5.10;;;4.60;99.90;;;;;;4909693;23;20491;-53
2021/11/28 01:45:19;;;;;;;12.13;6.73;;;4.60;99.90;;;;;;4902464;29;20463;-54
2021/11/28 01:47:47;;;;;;;12.50;6.40;;;4.60;99.90;;;;;;4909522;23;20487;-58
2021/11/28 01:50:15;;;;;;;9.20;5.60;;;4.60;99.90;;;;;;4902305;29;20440;-53
2021/11/28 01:52:42;;;;;;;10.20;5.47;;;4.60;99.90;;;;;;4910109;23;20475;-57
2021/11/28 01:55:14;;;;;;;7.90;5.00;;;4.60;99.90;;;;;;4902446;29;20454;-52
2021/11/28 01:57:41;;;;;;;7.07;4.77;;;4.60;99.90;;;;;;4909294;23;20490;-52
2021/11/28 02:00:12;;;;;;;16.03;6.10;;;4.60;99.90;;;;;;4902496;29;20495;-56
2021/11/28 02:02:44;;;;;;;10.70;6.13;;;4.60;99.90;;;;;;4925924;23;20463;-47
2021/11/28 02:05:11;;;;;;;7.23;4.67;;;4.60;99.90;;;;;;4901037;29;20479;-57
2021/11/28 02:10:08;;;;;;;5.00;4.03;;;4.60;99.90;;;;;;4918157;23;20527;-54
2021/11/28 02:12:36;;;;;;;9.30;5.63;;;4.70;99.90;;;;;;4902016;29;20207;-48
2021/11/28 02:15:04;;;;;;;10.73;5.30;;;4.70;99.90;;;;;;4908823;23;20485;-52
2021/11/28 02:17:31;;;;;;;10.83;6.10;;;4.70;99.90;;;;;;4902204;29;20440;-54
2021/11/28 02:20:00;;;;;;;10.60;5.90;;;4.70;99.90;;;;;;4909006;23;20783;-52
2021/11/28 02:22:31;;;;;;;9.97;5.73;;;4.70;99.90;;;;;;4901391;29;20503;-51
2021/11/28 02:24:58;;;;;;;9.23;6.20;;;4.70;99.90;;;;;;4923627;23;20487;-54
2021/11/28 02:27:25;;;;;;;20.20;6.53;;;4.80;99.90;;;;;;4901751;29;20467;-56
2021/11/28 02:30:00;;;;;;;7.17;5.60;;;4.80;99.90;;;;;;4922487;23;20510;-53
2021/11/28 02:32:27;;;;;;;7.20;5.17;;;4.80;99.90;;;;;;4901467;29;20432;-50
2021/11/28 02:34:54;;;;;;;8.53;5.57;;;4.90;99.90;;;;;;4908881;23;20467;-54
2021/11/28 02:37:21;;;;;;;9.73;5.53;;;4.90;99.90;;;;;;4901531;29;20454;-52
2021/11/28 02:39:50;;;;;;;14.70;5.40;;;4.90;99.90;;;;;;4907984;23;20495;-57
2021/11/28 02:42:19;;;;;;;10.80;6.33;;;4.90;99.90;;;;;;4900832;29;20513;-51
2021/11/28 02:44:47;;;;;;;10.10;5.87;;;4.90;99.90;;;;;;4908287;23;20569;-51
2021/11/28 02:47:15;;;;;;;8.27;5.90;;;5.00;99.90;;;;;;4900631;29;20472;-52
2021/11/28 02:49:41;;;;;;;9.33;4.97;;;4.90;99.90;;;;;;4876926;23;1336732;-54
2021/11/28 02:52:10;;;;;;;9.47;5.80;;;4.90;99.90;;;;;;4901205;29;20463;-54
2021/11/28 02:57:09;;;;;;;12.00;6.93;;;4.90;99.90;;;;;;4899576;29;20458;-45
2021/11/28 02:59:41;;;;;;;14.20;6.20;;;4.90;99.90;;;;;;4901652;29;20424;-51
2021/11/28 03:02:08;;;;;;;8.17;4.77;;;4.90;99.90;;;;;;4908607;23;20490;-51
2021/11/28 03:04:35;;;;;;;10.50;5.93;;;4.90;99.90;;;;;;4901404;29;20464;-51
2021/11/28 03:07:03;;;;;;;9.73;5.90;;;4.90;99.90;;;;;;4923464;23;20512;-54
2021/11/28 03:09:30;;;;;;;7.30;4.93;;;4.80;99.90;;;;;;4900753;29;20471;-52
2021/11/28 03:11:58;;;;;;;6.53;5.37;;;4.80;99.90;;;;;;4923471;23;20495;-55
2021/11/28 03:14:31;;;;;;;10.40;5.60;;;4.90;99.90;;;;;;4901073;29;20455;-53
2021/11/28 03:17:00;;;;;;;8.17;5.43;;;4.90;99.90;;;;;;4908268;23;20476;-53
2021/11/28 03:19:27;;;;;;;9.50;5.37;;;4.90;99.90;;;;;;4900862;29;20474;-55
2021/11/28 03:21:56;;;;;;;9.80;5.50;;;4.90;99.90;;;;;;4923523;23;20495;-54
2021/11/28 03:24:23;;;;;;;13.40;8.40;;;4.90;99.90;;;;;;4901013;29;20424;-53
2021/11/28 03:26:53;;;;;;;13.43;6.30;;;4.90;99.90;;;;;;4923771;23;20523;-53
2021/11/28 03:29:23;;;;;;;6.00;4.87;;;4.80;99.90;;;;;;4901217;29;20491;-54
2021/11/28 03:34:24;;;;;;;8.53;6.07;;;4.90;99.90;;;;;;4906602;23;20483;-51
2021/11/28 03:36:53;;;;;;;7.17;5.50;;;4.90;99.90;;;;;;4901449;29;20452;-55
2021/11/28 03:39:23;;;;;;;6.73;4.80;;;4.80;99.90;;;;;;4908474;23;20503;-45
2021/11/28 03:41:54;;;;;;;10.13;5.30;;;4.80;99.90;;;;;;4903385;29;20843;-52
2021/11/28 03:44:22;;;;;;;9.60;5.07;;;4.80;99.90;;;;;;4912024;23;20487;-55
2021/11/28 03:46:49;;;;;;;8.97;6.30;;;4.70;99.90;;;;;;4904684;29;20509;-50
2021/11/28 03:49:16;;;;;;;7.47;4.53;;;4.70;99.90;;;;;;4911774;23;20490;-54
2021/11/28 03:51:45;;;;;;;11.77;5.43;;;4.70;99.90;;;;;;4904728;29;20516;-52
2021/11/28 03:54:12;;;;;;;9.23;5.17;;;4.70;99.90;;;;;;4911786;23;20475;-56
2021/11/28 03:56:39;;;;;;;9.80;5.20;;;4.70;99.90;;;;;;4903988;29;20455;-54
2021/11/28 03:59:06;;;;;;;7.03;5.60;;;4.70;99.90;;;;;;4911867;23;20482;-53
2021/11/28 04:01:35;;;;;;;7.90;5.80;;;4.80;99.90;;;;;;4904179;29;20436;-52
2021/11/28 04:06:34;;;;;;;9.63;5.20;;;4.80;99.90;;;;;;4924484;23;20475;-46
2021/11/28 04:09:03;;;;;;;6.63;4.70;;;4.80;99.90;;;;;;4904172;29;20487;-55
2021/11/28 04:11:30;;;;;;;7.20;4.50;;;4.80;99.90;;;;;;4911463;23;20491;-56
2021/11/28 04:13:57;;;;;;;7.83;5.97;;;4.80;99.90;;;;;;4904252;29;20432;-52
2021/11/28 04:16:25;;;;;;;8.07;5.37;;;4.80;99.90;;;;;;4910883;23;20474;-50
2021/11/28 04:18:52;;;;;;;9.97;6.10;;;4.70;99.90;;;;;;4904450;29;20511;-48
2021/11/28 04:21:20;;;;;;;4.33;3.77;;;4.70;99.90;;;;;;4911471;23;20515;-53
2021/11/28 04:23:48;;;;;;;7.20;4.17;;;4.70;99.90;;;;;;4904096;29;20482;-55
2021/11/28 04:26:17;;;;;;;10.93;5.90;;;4.70;99.90;;;;;;4925886;23;20567;-50
2021/11/28 04:28:44;;;;;;;6.07;3.90;;;4.50;99.90;;;;;;4903723;29;20559;-45
2021/11/28 04:31:11;;;;;;;10.03;4.27;;;4.40;99.90;;;;;;4925923;23;20490;-47
2021/11/28 04:33:38;;;;;;;9.60;6.30;;;4.30;99.90;;;;;;4903847;29;20464;-51
2021/11/28 04:36:06;;;;;;;10.23;5.17;;;4.30;99.90;;;;;;4925973;23;20559;-55
2021/11/28 04:38:38;;;;;;;6.53;4.33;;;4.20;99.90;;;;;;4903728;29;20483;-55
2021/11/28 04:41:10;;;;;;;5.10;4.00;;;4.20;99.90;;;;;;4910450;23;20483;-50
2021/11/28 04:43:39;;;;;;;8.20;4.40;;;4.10;99.90;;;;;;4903053;29;20466;-55
2021/11/28 04:46:05;;;;;;;8.83;4.20;;;4.10;99.90;;;;;;4911150;23;20484;-52
2021/11/28 04:48:32;;;;;;;12.50;5.93;;;4.00;99.90;;;;;;4904066;29;20424;-50
2021/11/28 04:51:02;;;;;;;9.03;5.13;;;3.90;99.90;;;;;;4911691;23;20510;-51
2021/11/28 04:53:29;;;;;;;8.60;5.57;;;3.90;99.90;;;;;;4903215;29;20509;-55
2021/11/28 04:58:41;;;;;;;5.27;3.50;;;3.80;99.90;;;;;;4910300;23;20572;-48
2021/11/28 05:03:49;;;;;;;7.70;4.63;;;3.80;99.90;;;;;;4910945;23;20567;-54
2021/11/28 05:06:16;;;;;;;7.93;5.00;;;3.80;99.90;;;;;;4903499;29;20447;-53
2021/11/28 05:08:44;;;;;;;7.37;5.07;;;3.70;99.90;;;;;;4940461;23;20551;-54
2021/11/28 05:11:11;;;;;;;9.17;6.37;;;3.70;99.90;;;;;;4903018;29;20459;-55
2021/11/28 05:13:43;;;;;;;10.27;6.20;;;3.80;99.90;;;;;;4910331;23;20716;-53
2021/11/28 05:16:10;;;;;;;17.87;6.47;;;3.80;99.90;;;;;;4903034;29;20468;-53
2021/11/28 05:18:37;;;;;;;8.37;5.60;;;3.80;99.90;;;;;;4940388;23;20536;-53
2021/11/28 05:21:04;;;;;;;10.90;4.23;;;3.80;99.90;;;;;;4903116;29;20454;-52
2021/11/28 05:23:31;;;;;;;16.93;5.83;;;3.80;99.90;;;;;;4903167;29;20456;-52
2021/11/28 05:25:58;;;;;;;7.63;4.73;;;3.80;99.90;;;;;;4903402;29;20444;-48
2021/11/28 05:28:25;;;;;;;11.83;5.93;;;3.70;99.90;;;;;;4903465;29;20484;-49
2021/11/28 05:30:54;;;;;;;10.60;5.33;;;3.60;99.90;;;;;;4902939;29;20524;-46
2021/11/28 05:33:21;;;;;;;5.93;5.13;;;3.60;99.90;;;;;;4902500;29;20459;-54
2021/11/28 05:35:47;;;;;;;7.63;4.40;;;3.60;99.90;;;;;;4903113;29;20475;-47
2021/11/28 05:38:15;;;;;;;5.20;4.47;;;3.50;99.90;;;;;;4902996;29;20451;-54
2021/11/28 05:40:41;;;;;;;4.50;3.77;;;3.50;99.90;;;;;;4902893;29;20447;-57
2021/11/28 05:43:08;;;;;;;9.50;5.00;;;3.50;99.90;;;;;;4902849;29;20452;-55
2021/11/28 05:45:35;;;;;;;7.40;4.10;;;3.40;99.90;;;;;;4902349;29;20455;-55
2021/11/28 05:48:04;;;;;;;7.10;4.67;;;3.40;99.90;;;;;;4902687;29;20463;-49
2021/11/28 05:50:32;;;;;;;9.77;5.30;;;3.40;99.90;;;;;;4902120;29;20511;-49
2021/11/28 05:53:00;;;;;;;10.67;5.80;;;3.40;99.90;;;;;;4902874;29;20496;-51
2021/11/28 05:55:27;;;;;;;7.20;4.50;;;3.40;99.90;;;;;;4903163;29;20447;-55
2021/11/28 05:57:54;;;;;;;7.80;5.63;;;3.30;99.90;;;;;;4902837;29;20463;-53
2021/11/28 06:00:22;;;;;;;9.10;5.80;;;3.30;99.90;;;;;;4902464;29;20475;-51
2021/11/28 06:02:49;;;;;;;9.33;4.10;;;3.30;99.90;;;;;;4901962;29;20440;-51
2021/11/28 06:05:17;;;;;;;10.07;5.00;;;3.20;99.90;;;;;;4901995;29;20467;-46
2021/11/28 06:07:44;;;;;;;8.97;5.00;;;3.20;99.90;;;;;;4901961;29;20432;-54
2021/11/28 06:10:11;;;;;;;6.70;4.20;;;3.10;99.90;;;;;;4901328;29;20494;-55
2021/11/28 06:12:38;;;;;;;12.07;5.20;;;3.10;99.90;;;;;;4901237;29;20470;-53
2021/11/28 06:15:06;;;;;;;8.33;5.50;;;3.10;99.90;;;;;;4901436;29;20462;-53
2021/11/28 06:17:33;;;;;;;5.47;3.70;;;3.10;99.90;;;;;;4900952;29;20466;-55
2021/11/28 06:20:00;;;;;;;4.70;3.37;;;3.10;99.90;;;;;;4900580;29;20484;-50
2021/11/28 06:22:28;;;;;;;13.77;5.87;;;3.00;99.90;;;;;;4900627;29;20461;-47
2021/11/28 06:24:55;;;;;;;10.30;4.80;;;3.00;99.90;;;;;;4901016;29;20471;-53
2021/11/28 06:27:22;;;;;;;8.13;4.43;;;2.90;99.90;;;;;;4900723;29;20459;-53
2021/11/28 06:29:49;;;;;;;7.50;4.17;;;2.90;99.90;;;;;;4900933;29;20513;-52
2021/11/28 06:32:16;;;;;;;4.90;2.90;;;2.80;99.90;;;;;;4900952;29;20455;-55
2021/11/28 06:34:44;;;;;;;7.43;5.00;;;2.80;99.90;;;;;;4900929;29;20435;-59
2021/11/28 06:37:11;;;;;;;7.17;3.57;;;2.80;99.90;;;;;;4900854;29;20474;-52
2021/11/28 06:39:39;;;;;;;10.67;4.57;;;2.70;99.90;;;;;;4900701;29;20460;-51
2021/11/28 06:42:06;;;;;;;5.80;4.40;;;2.70;99.90;;;;;;4900691;29;20504;-48
2021/11/28 06:44:33;;;;;;;7.27;5.00;;;2.70;99.90;;;;;;4900904;29;20463;-53
2021/11/28 06:47:00;;;;;;;11.90;5.40;;;2.70;99.90;;;;;;4900833;29;20955;-50
2021/11/28 06:49:27;;;;;;;8.20;4.17;;;2.70;99.90;;;;;;4900119;29;20800;-55
2021/11/28 06:51:55;;;;;;;7.80;3.83;;;2.60;99.90;;;;;;4900416;29;20479;-52
2021/11/28 06:54:22;;;;;;;7.53;3.63;;;2.60;99.90;;;;;;4900812;29;20507;-56
2021/11/28 06:56:51;;;;;;;11.60;4.20;;;2.60;99.90;;;;;;4900658;29;20467;-53
2021/11/28 06:59:20;;;;;;;4.70;2.80;;;2.50;99.90;;;;;;4901285;29;20468;-51
2021/11/28 07:01:48;;;;;;;9.53;5.33;;;2.60;99.90;;;;;;4900845;29;20452;-55
2021/11/28 07:04:15;;;;;;;9.77;4.43;;;2.60;99.90;;;;;;4900450;29;20459;-55
2021/11/28 07:06:42;;;;;;;7.00;4.57;;;2.50;99.90;;;;;;4900100;29;20479;-55
2021/11/28 07:09:09;;;;;;;6.97;4.40;;;2.50;99.90;;;;;;4900292;29;20451;-50
2021/11/28 07:11:36;;;;;;;5.37;3.43;;;2.50;99.90;;;;;;4900502;29;20491;-50
2021/11/28 07:14:04;;;;;;;6.20;3.53;;;2.50;99.90;;;;;;4900668;29;20435;-50
2021/11/28 07:16:31;;;;;;;7.43;5.10;;;2.50;99.90;;;;;;4902782;29;20455;-50
2021/11/28 07:18:58;;;;;;;10.20;4.53;;;2.50;99.90;;;;;;4903844;29;20467;-57
2021/11/28 07:21:25;;;;;;;8.27;4.27;;;2.40;99.90;;;;;;4903939;29;20435;-55
2021/11/28 07:23:52;;;;;;;8.73;4.10;;;2.40;99.90;;;;;;4904069;29;20443;-54
2021/11/28 07:26:19;;;;;;;6.50;3.23;;;2.40;99.90;;;;;;4904448;29;20468;-55
2021/11/28 07:28:47;;;;;;;12.40;5.60;;;2.40;99.90;;;;;;4904238;29;20451;-56
2021/11/28 07:31:15;;;;;;;7.17;4.27;;;2.50;99.90;;;;;;4903889;29;20487;-50
2021/11/28 07:33:42;;;;;;;6.50;3.70;;;2.50;99.90;;;;;;4904064;29;20534;-50
2021/11/28 07:36:10;;;;;;;5.37;4.13;;;2.60;99.90;;;;;;4903675;29;20654;-54
2021/11/28 07:38:38;;;;;;;10.53;4.60;;;2.60;99.90;;;;;;4903768;29;20448;-51
2021/11/28 07:41:05;;;;;;;7.87;4.10;;;2.70;99.90;;;;;;4903449;29;20471;-54
2021/11/28 07:43:33;;;;;;;10.63;5.13;;;2.70;99.90;;;;;;4903654;29;20467;-52
2021/11/28 07:46:02;;;;;;;9.03;5.33;;;2.60;99.90;;;;;;4903693;29;20464;-48
2021/11/28 07:48:30;;;;;;;9.67;4.73;;;2.60;99.90;;;;;;4903655;29;20463;-49
2021/11/28 07:50:58;;;;;;;8.60;4.37;;;2.60;99.90;;;;;;4904477;29;20451;-44
2021/11/28 07:53:25;;;;;;;7.53;4.43;;;2.70;99.90;;;;;;4903580;29;20462;-50
2021/11/28 07:55:52;;;;;;;8.97;5.70;;;2.70;99.90;;;;;;4903913;29;20505;-49
2021/11/28 07:58:20;;;;;;;4.77;3.40;;;2.70;99.90;;;;;;4904600;29;20453;-53
2021/11/28 08:00:47;;;;;;;9.20;4.80;;;2.70;99.90;;;;;;4902842;29;20508;-54
2021/11/28 08:03:15;;;;;;;6.20;5.00;;;2.70;99.90;;;;;;4902580;29;20455;-53
2021/11/28 08:05:44;;;;;;;8.77;3.77;;;2.70;99.90;;;;;;4902996;29;20502;-50
2021/11/28 08:08:11;;;;;;;8.10;4.27;;;2.80;99.90;;;;;;4902487;29;20475;-56
2021/11/28 08:10:38;;;;;;;6.47;4.70;;;2.80;99.90;;;;;;4902386;29;20483;-49
2021/11/28 08:13:05;;;;;;;12.80;6.33;;;2.80;99.90;;;;;;4902323;29;20470;-53
2021/11/28 08:15:32;;;;;;;10.53;5.87;;;2.80;99.90;;;;;;4902175;29;20462;-54
2021/11/28 08:17:59;;;;;;;8.40;5.70;;;2.80;99.90;;;;;;4902764;29;20470;-53
2021/11/28 08:20:26;;;;;;;7.27;3.77;;;2.80;99.90;;;;;;4902247;29;20455;-56
2021/11/28 08:22:55;;;;;;;8.83;4.50;;;2.80;99.90;;;;;;4902382;29;20456;-48
2021/11/28 08:25:22;;;;;;;8.70;5.27;;;2.80;99.90;;;;;;4902178;29;20466;-55
2021/11/28 08:27:50;;;;;;;10.77;6.47;;;2.80;99.90;;;;;;4902135;29;20451;-54
2021/11/28 08:30:17;;;;;;;7.60;3.47;;;2.70;99.90;;;;;;4904277;29;20555;-49
2021/11/28 08:32:46;;;;;;;11.13;5.07;;;2.80;99.90;;;;;;4903922;29;20501;-52
2021/11/28 08:35:17;;;;;;;5.50;3.37;;;2.80;99.90;;;;;;4904098;29;20434;-55
2021/11/28 08:37:47;;;;;;;7.73;3.80;;;2.80;99.90;;;;;;4904396;29;20475;-51
2021/11/28 08:40:18;;;;;;;5.77;3.30;;;2.80;99.90;;;;;;4903615;29;20443;-55
2021/11/28 08:42:46;;;;;;;7.57;4.20;;;2.80;99.90;;;;;;4902570;29;20436;-52
2021/11/28 08:45:13;;;;;;;7.63;5.77;;;2.80;99.90;;;;;;4901869;29;20455;-52
2021/11/28 08:47:43;;;;;;;4.60;2.73;;;2.90;99.90;;;;;;4901666;29;20459;-45
2021/11/28 08:50:14;;;;;;;5.33;4.80;;;2.90;99.90;;;;;;4901963;29;20506;-46
2021/11/28 08:52:43;;;;;;;4.70;4.30;;;2.90;99.90;;;;;;4901449;29;20515;-52
2021/11/28 08:55:10;;;;;;;10.60;4.27;;;3.00;99.90;;;;;;4902805;29;20511;-46
2021/11/28 08:57:38;;;;;;;5.87;3.27;;;3.00;99.90;;;;;;4902170;29;20446;-45
2021/11/28 09:00:08;;;;;;;7.83;3.97;;;3.10;99.90;;;;;;4901733;29;20451;-48
2021/11/28 09:02:35;;;;;;;8.83;4.40;;;3.10;99.90;;;;;;4902018;29;20473;-50
2021/11/28 09:05:06;;;;;;;5.60;3.50;;;3.10;99.90;;;;;;4909077;23;20523;-45
2021/11/28 09:07:33;;;;;;;10.07;5.53;;;3.10;99.90;;;;;;4900911;29;20432;-44
2021/11/28 09:10:01;;;;;;;7.90;2.80;;;3.10;99.90;;;;;;4908393;23;20504;-47
2021/11/28 09:12:28;;;;;;;13.27;5.00;;;3.10;99.90;;;;;;4901183;29;20479;-50
2021/11/28 09:14:57;;;;;;;4.83;3.30;;;3.20;99.90;;;;;;4908396;23;20483;-51
2021/11/28 09:17:24;;;;;;;8.90;4.10;;;3.20;99.90;;;;;;4901865;29;20431;-48
2021/11/28 09:19:56;;;;;;;9.70;4.73;;;3.30;99.90;;;;;;4906740;23;20578;-50
2021/11/28 09:22:33;;;;;;;12.07;5.00;;;3.60;99.90;;;;;;4898273;29;20467;-50
2021/11/28 09:24:59;;;;;;;6.50;3.80;;;4.00;99.90;;;;;;4905382;23;20491;-46
2021/11/28 09:27:27;;;;;;;9.63;4.43;;;4.50;99.90;;;;;;4895499;29;20475;-47
2021/11/28 09:29:54;;;;;;;10.83;5.20;;;5.00;99.90;;;;;;4916658;23;20498;-49
2021/11/28 09:32:22;;;;;;;8.10;4.00;;;5.50;99.90;;;;;;4894801;29;20697;-52
2021/11/28 09:34:49;;;;;;;14.50;5.43;;;5.70;99.90;;;;;;4901844;23;20495;-49
2021/11/28 09:37:16;;;;;;;7.33;4.83;;;5.90;99.90;;;;;;4894795;29;20452;-50
2021/11/28 09:39:45;;;;;;;6.40;3.83;;;6.00;99.90;;;;;;4899107;23;20483;-51
2021/11/28 09:42:17;;;;;;;4.67;3.50;;;6.40;99.90;;;;;;4892843;29;20961;-53
2021/11/28 09:44:45;;;;;;;11.47;5.60;;;6.60;99.90;;;;;;4901485;29;20547;-45
2021/11/28 09:47:13;;;;;;;5.60;3.73;;;7.90;99.90;;;;;;4912698;29;20469;-48
2021/11/28 09:52:11;;;;;;;6.23;5.00;;;8.80;99.90;;;;;;4893143;23;20499;-48
2021/11/28 09:54:40;;;;;;;4.97;4.03;;;9.00;99.90;;;;;;4888654;29;20467;-47
2021/11/28 09:57:12;;;;;;;9.43;5.03;;;9.20;99.90;;;;;;4893397;23;20977;-45
2021/11/28 09:59:39;;;;;;;5.40;4.87;;;9.30;99.90;;;;;;4886422;29;20436;-46
2021/11/28 10:02:07;;;;;;;7.67;5.20;;;9.60;99.90;;;;;;4892048;23;20499;-49
2021/11/28 10:04:34;;;;;;;6.67;4.70;;;9.90;99.90;;;;;;4884962;29;20519;-46
2021/11/28 10:07:02;;;;;;;6.13;3.93;;;10.50;99.90;;;;;;4898404;23;20530;-48
2021/11/28 10:09:30;;;;;;;8.70;3.70;;;11.00;99.90;;;;;;4883812;29;20485;-49
2021/11/28 10:12:15;;;;;;;8.53;4.37;;;11.60;99.90;;;;;;4890873;23;20491;-50
2021/11/28 10:14:46;;;;;;;7.30;4.00;;;12.40;99.90;;;;;;4884277;29;20447;-43
2021/11/28 10:17:13;;;;;;;8.33;4.80;;;12.70;99.90;;;;;;4892442;23;20527;-51
2021/11/28 10:19:40;;;;;;;11.30;6.30;;;12.90;99.90;;;;;;4888961;29;20460;-52
2021/11/28 10:22:08;;;;;;;10.07;6.30;;;13.10;99.60;;;;;;4897628;23;20495;-50
2021/11/28 10:24:36;;;;;;;14.10;7.10;;;12.80;98.50;;;;;;4888686;29;20440;-48
2021/11/28 10:29:50;;;;;;;9.90;5.30;;;11.30;99.90;;;;;;4883478;29;20482;-50
2021/11/28 10:35:03;;;;;;;;;;;;;;;;;;;;;
2021/11/28 10:37:33;;;;;;;8.93;5.83;;;9.00;99.90;;;;;;4907052;23;20543;-50
2021/11/28 10:40:02;;;;;;;6.60;5.00;;;8.50;99.90;;;;;;4868460;29;20496;-47
2021/11/28 10:45:14;;;;;;;6.80;4.43;;;7.60;99.90;;;;;;4910369;23;20505;-47
2021/11/28 10:50:24;;;;;;;12.40;4.77;;;7.00;99.90;;;;;;4895274;23;20503;-45
2021/11/28 10:52:52;;;;;;;10.47;4.40;;;6.80;99.90;;;;;;4889103;29;20467;-42
2021/11/28 10:55:27;;;;;;;8.70;4.50;;;6.60;99.90;;;;;;4896911;23;20578;-47
2021/11/28 11:01:08;;;;;;;8.00;4.23;;;6.40;99.90;;;;;;4902337;23;20563;-47
2021/11/28 11:03:36;;;;;;;6.40;4.63;;;6.20;99.90;;;;;;4897832;23;20964;-46
2021/11/28 11:06:25;;;;;;;7.13;5.13;;;6.10;99.90;;;;;;4888803;29;20498;-48
2021/11/28 11:09:14;;;;;;;5.47;3.70;;;6.00;99.90;;;;;;4893493;23;20480;-50
2021/11/28 11:11:43;;;;;;;5.40;3.70;;;5.90;99.90;;;;;;4872220;29;20635;-51
2021/11/28 11:14:11;;;;;;;8.00;4.00;;;5.90;99.90;;;;;;4881710;23;20560;-49
2021/11/28 11:16:40;;;;;;;6.93;4.37;;;5.80;99.90;;;;;;4890644;29;20470;-47
2021/11/28 11:19:28;;;;;;;11.20;4.33;;;5.80;99.90;;;;;;4899677;23;20498;-46
2021/11/28 11:22:04;;;;;;;7.57;3.50;;;5.80;99.90;;;;;;4871397;29;20903;-50
2021/11/28 11:24:34;;;;;;;7.30;3.27;;;5.70;99.90;;;;;;4881501;23;20456;-49
2021/11/28 11:27:11;;;;;;;9.07;4.27;;;5.70;99.90;;;;;;4891191;29;20435;-47
2021/11/28 11:29:39;;;;;;;14.00;6.00;;;5.70;99.90;;;;;;4898360;23;20893;-48
2021/11/28 11:32:12;;;;;;;5.40;4.13;;;5.70;99.90;;;;;;4892581;29;20475;-46
2021/11/28 11:37:13;;;;;;;11.50;3.53;;;5.60;99.90;;;;;;4889800;29;20479;-47
2021/11/28 11:39:42;;;;;;;10.90;5.67;;;5.60;99.90;;;;;;4890679;29;20483;-50
2021/11/28 11:42:15;;;;;;;8.80;4.77;;;5.60;99.90;;;;;;4898009;23;20563;-47
2021/11/28 11:44:44;;;;;;;6.70;4.13;;;5.70;99.90;;;;;;4890318;29;20439;-49
2021/11/28 11:47:11;;;;;;;12.20;5.20;;;5.80;99.90;;;;;;4912207;23;20566;-47
2021/11/28 11:49:39;;;;;;;8.90;6.00;;;5.80;99.90;;;;;;4889844;29;20466;-48
2021/11/28 11:52:07;;;;;;;8.37;5.00;;;5.80;99.90;;;;;;4911525;23;20882;-50
2021/11/28 11:54:42;;;;;;;8.40;4.87;;;5.90;99.90;;;;;;4889045;29;20432;-51
2021/11/28 11:57:13;;;;;;;9.50;4.90;;;6.00;99.90;;;;;;4897340;23;20491;-51
2021/11/28 11:59:51;;;;;;;11.00;5.00;;;6.00;99.90;;;;;;4890536;29;20488;-49
2021/11/28 12:02:31;;;;;;;11.73;5.33;;;6.00;99.90;;;;;;4898870;23;20494;-51
2021/11/28 12:04:59;;;;;;;10.60;4.20;;;5.90;99.90;;;;;;4892849;29;20517;-51
2021/11/28 12:07:48;;;;;;;6.60;3.97;;;5.90;99.90;;;;;;4900996;23;20510;-47
2021/11/28 12:10:35;;;;;;;6.90;4.23;;;5.90;99.90;;;;;;4894068;29;20764;-43
2021/11/28 12:13:06;;;;;;;5.43;4.20;;;5.80;99.90;;;;;;4902014;23;20503;-46
2021/11/28 12:15:35;;;;;;;11.70;4.70;;;5.70;99.90;;;;;;4894028;29;20470;-46
2021/11/28 12:18:02;;;;;;;9.87;5.03;;;5.70;99.90;;;;;;4901055;23;20495;-49
2021/11/28 12:20:56;;;;;;;7.50;3.87;;;5.80;99.90;;;;;;4893989;29;20459;-52
2021/11/28 12:23:56;;;;;;;5.70;4.20;;;5.80;99.90;;;;;;4916015;23;20534;-50
2021/11/28 12:29:41;;;;;;;5.17;3.73;;;5.90;99.90;;;;;;4900236;23;20475;-52
2021/11/28 12:32:33;;;;;;;6.50;4.00;;;5.90;99.90;;;;;;4911212;23;20466;-44
2021/11/28 12:35:06;;;;;;;8.37;4.17;;;5.90;99.90;;;;;;4865913;29;20468;-49
2021/11/28 12:37:48;;;;;;;11.30;5.93;;;5.90;99.90;;;;;;4899713;23;20486;-46
2021/11/28 12:40:30;;;;;;;7.50;5.13;;;5.90;99.90;;;;;;4906222;29;20455;-47
2021/11/28 12:42:58;;;;;;;5.97;3.83;;;5.90;99.90;;;;;;4915965;23;20483;-50
2021/11/28 12:45:33;;;;;;;9.50;4.13;;;5.90;99.90;;;;;;4901929;29;20943;-50
2021/11/28 12:48:29;;;;;;;6.00;5.03;;;5.90;99.90;;;;;;4923076;23;20486;-50
2021/11/28 12:51:03;;;;;;;6.97;4.67;;;5.90;99.90;;;;;;4887225;29;20455;-47
2021/11/28 12:53:59;;;;;;;11.57;5.00;;;5.80;99.90;;;;;;4923862;23;20494;-51
2021/11/28 12:56:27;;;;;;;8.40;4.40;;;5.80;99.90;;;;;;4902683;29;20447;-50
2021/11/28 12:59:21;;;;;;;6.17;4.20;;;5.80;99.90;;;;;;4919506;23;20483;-50
2021/11/28 13:01:58;;;;;;;8.23;4.73;;;5.90;99.90;;;;;;4911768;29;20450;-50
2021/11/28 13:04:46;;;;;;;8.40;4.87;;;5.90;99.90;;;;;;4913656;23;20491;-46
2021/11/28 13:07:47;;;;;;;7.33;4.43;;;5.90;99.90;;;;;;4891679;29;20788;-48
2021/11/28 13:10:22;;;;;;;6.33;4.30;;;6.00;99.90;;;;;;4898748;23;20499;-50
2021/11/28 13:12:50;;;;;;;12.63;5.70;;;6.00;99.90;;;;;;4890561;29;20494;-52
2021/11/28 13:15:24;;;;;;;7.23;4.70;;;6.00;99.90;;;;;;4911510;23;20486;-47
2021/11/28 13:17:54;;;;;;;6.53;3.70;;;6.00;99.90;;;;;;4919126;29;20496;-48
2021/11/28 13:20:31;;;;;;;7.03;4.00;;;6.00;99.90;;;;;;4912723;23;20503;-47
2021/11/28 13:23:06;;;;;;;8.30;4.37;;;6.00;99.90;;;;;;4885587;29;20444;-46
2021/11/28 13:25:36;;;;;;;13.87;5.40;;;6.00;99.90;;;;;;4913232;23;20482;-51
2021/11/28 13:28:07;;;;;;;11.40;5.43;;;6.00;99.90;;;;;;4899807;29;20444;-52
2021/11/28 13:30:51;;;;;;;8.93;4.87;;;6.00;99.90;;;;;;4907453;23;20492;-48
2021/11/28 13:33:22;;;;;;;13.03;3.90;;;6.00;99.90;;;;;;4900121;29;20489;-48
2021/11/28 13:36:02;;;;;;;6.73;4.27;;;6.00;99.90;;;;;;4907654;23;20490;-48
2021/11/28 13:38:31;;;;;;;12.50;4.80;;;5.90;99.90;;;;;;4900592;29;20854;-46
2021/11/28 13:41:06;;;;;;;7.07;4.13;;;5.90;99.90;;;;;;4907569;23;20491;-48
2021/11/28 13:43:35;;;;;;;10.90;5.80;;;5.90;99.90;;;;;;4899973;29;20504;-50
2021/11/28 13:46:15;;;;;;;13.40;5.80;;;5.90;99.90;;;;;;4922389;23;20504;-52
2021/11/28 13:48:56;;;;;;;8.63;4.63;;;5.90;99.90;;;;;;4899677;29;20468;-49